Anderson Island, Washington
Current Conditions -  °F | °C
As of 12:58 AM on Tuesday 21 Oct 2014 (Local Time) from KGRF Reporting Station
Drizzle Drizzle  
Wind Chill: 50°   Ceiling: 5000
Heat Index: 50°   Visibility: 10mi
Dew Point: 50°   Wind: 6mph
Humidity: 99%   Direction: 140°SE
Pressure: 29.81"   Gusts: NA
Location:  47.16°N, 122.7°W
Report Text: KGRF 210758Z AUTO 14005KT 10SM DZ BKN050 OVC060 10/10 A2981 RMK AO2 RAE0721DZB0721 SLP098 P0000 T01020101 401730099 $
Loading
Personal Weather Stations






























Interactive Weather Map
Tropical Storm Tracking
New forecast layout! Learn more

10-Day Weather Forecast

Advertisements
Track Severe Weather on mobile